Weather at Ben Gurion International Airport

Public forecast

Using degrees Celsius for public forecast. Weather courtesy of forecast.io.

Current aviation weather report (METAR) for Ben Gurion International Airport

Retrieved 2021/10/21 14:20 UTC (24 minutes ago):

LLBG 211420Z 32011KT 9999 FEW032 25/16 Q1018 NOSIG

Aviation forecast (TAF) for Ben Gurion International Airport

Retrieved 2021/10/21 12:04 UTC (3 hours ago):

TAF LLBG 211107Z 2112/2212 33013KT CAVOK BECMG 2115/2117 VRB03KT 9999 SCT030 BECMG 2206/2208 33013KT CAVOK TX27/2112Z TN18/2204Z